Chesapeake — WDD3041 — position and weather

sailwx.info

Track history (hours):
 
Tides and Currents Weather Stations Pressure Air Temp Water Temp Dewpoint Dewpoint Depression Visibility Wind Speed Wind Dir Waves Ship Positions

Chesapeake

Owner: Vane Line Bunkering, Baltimore, MD. More information available from US FCC via Universal Licensing System and Coast Guard Vessel Documentation Center.

Last reported at 2016-Dec-06 11:33 UTC. Time now 2016-Dec-06 12:13 UTC.
Position N 39°52' W 075°13'.

Length 34 m.

Type: Tug. MMSI: 367123040.

Date/timePositionNaut miles runAvg speedWind from/ knotsBaromVisibWave heightAir tempDewpointWater temp
2016-Dec-06 11:33N 39°52' W 075°13'0 0.0
2016-Dec-06 10:33N 39°52' W 075°13'0 0.0
2016-Dec-06 09:33N 39°52' W 075°13'0 0.0
2016-Dec-06 08:33N 39°52' W 075°13'0 0.0
2016-Dec-06 07:33N 39°52' W 075°13'0 0.1
2016-Dec-06 06:33N 39°52' W 075°13'0 0.1
2016-Dec-06 05:33N 39°52' W 075°13'0 0.0
2016-Dec-06 04:33N 39°52' W 075°13'0 0.0
2016-Dec-06 03:33N 39°52' W 075°13'0 0.0
2016-Dec-06 02:33N 39°52' W 075°13'0 0.0
2016-Dec-06 01:33N 39°52' W 075°13'0 0.0
2016-Dec-06 00:33N 39°52' W 075°13'0 0.1
2016-Dec-05 23:33N 39°52' W 075°13'0 0.1
2016-Dec-05 22:33N 39°52' W 075°13'0 0.0
2016-Dec-05 21:33N 39°52' W 075°13'0 0.0
2016-Dec-05 20:33N 39°52' W 075°13'0 0.0
2016-Dec-05 19:33N 39°52' W 075°13'0 0.0
2016-Dec-05 18:33N 39°52' W 075°13'0 0.0
2016-Dec-05 17:33N 39°52' W 075°13'0 0.1
2016-Dec-05 16:33N 39°52' W 075°13'0 0.0
2016-Dec-05 15:33N 39°52' W 075°13'0 0.0
2016-Dec-05 14:33N 39°52' W 075°13'0 0.0
2016-Dec-05 13:33N 39°52' W 075°13'0 0.0
2016-Dec-05 12:33N 39°52' W 075°13'0 0.1
2016-Dec-05 11:33N 39°52' W 075°13'0 0.0
2016-Dec-05 10:33N 39°52' W 075°13'0 0.0
2016-Dec-05 09:33N 39°52' W 075°13'0 0.0
2016-Dec-05 08:33N 39°52' W 075°13'0 0.0
2016-Dec-05 07:33N 39°52' W 075°13'0 0.0
2016-Dec-05 06:33N 39°52' W 075°13'0 0.1
2016-Dec-05 05:33N 39°52' W 075°13'0 0.1
2016-Dec-05 04:33N 39°52' W 075°13'0 0.0
2016-Dec-05 03:33N 39°52' W 075°13'0 0.0
2016-Dec-05 02:33N 39°52' W 075°13'0 0.0
2016-Dec-05 01:33N 39°52' W 075°13'0 0.0
2016-Dec-05 00:33N 39°52' W 075°13'0 0.0
2016-Dec-04 23:33N 39°52' W 075°13'0 0.1
2016-Dec-04 22:33N 39°52' W 075°13'0 0.0
2016-Dec-04 21:33N 39°52' W 075°13'0 0.0
2016-Dec-04 20:33N 39°52' W 075°13'0 0.0
2016-Dec-04 19:33N 39°52' W 075°13'0 0.0
2016-Dec-04 18:33N 39°52' W 075°13'0 0.0
2016-Dec-04 17:33N 39°52' W 075°13'0 0.1
2016-Dec-04 16:34N 39°52' W 075°13'0 0.1
2016-Dec-04 15:33N 39°52' W 075°13'6 6.0
2016-Dec-04 14:33N 39°56' W 075°08'4 4.1
2016-Dec-04 13:33N 39°59' W 075°04'0 0.0
2016-Dec-04 12:33N 39°59' W 075°04'0 0.0
2016-Dec-04 11:34N 39°59' W 075°04'1 0.6
2016-Dec-04 10:33N 39°59' W 075°05'0 0.0
2016-Dec-04 09:33N 39°59' W 075°05'0 0.0
2016-Dec-04 08:33N 39°59' W 075°05'0 0.0
2016-Dec-04 07:33N 39°59' W 075°05'0 0.0
2016-Dec-04 06:33N 39°59' W 075°05'0 0.0
2016-Dec-04 05:33N 39°59' W 075°05'0 0.0
2016-Dec-04 04:33N 39°59' W 075°05'0 0.0
2016-Dec-04 03:33N 39°59' W 075°05'0 0.0
2016-Dec-04 02:33N 39°59' W 075°05'0 0.0
2016-Dec-04 01:33N 39°59' W 075°05'0 0.0
2016-Dec-04 00:33N 39°59' W 075°05'0 0.0
2016-Dec-03 23:33N 39°59' W 075°05'0 0.0
2016-Dec-03 22:33N 39°59' W 075°05'0 0.0
2016-Dec-03 21:33N 39°59' W 075°05'0 0.0
2016-Dec-03 20:33N 39°59' W 075°05'0 0.0
2016-Dec-03 19:33N 39°59' W 075°05'1 0.6
2016-Dec-03 18:33N 39°59' W 075°04'2 2.2
2016-Dec-03 17:33N 39°58' W 075°07'3 3.1
2016-Dec-03 16:33N 39°55' W 075°08'0 0.0
2016-Dec-03 15:33N 39°55' W 075°08'0 0.0
2016-Dec-03 14:33N 39°55' W 075°08'0 0.0
2016-Dec-03 13:33N 39°55' W 075°08'0 0.0
2016-Dec-03 12:33N 39°55' W 075°08'0 0.0
2016-Dec-03 11:33N 39°55' W 075°08'0 0.0
2016-Dec-03 10:33N 39°55' W 075°08'0 0.2
2016-Dec-03 09:33N 39°55' W 075°08'0 0.1
2016-Dec-03 08:33N 39°55' W 075°08'0 0.0
2016-Dec-03 07:33N 39°55' W 075°08'0 0.0
2016-Dec-03 06:33N 39°55' W 075°08'0 0.0
2016-Dec-03 05:33N 39°55' W 075°08'0 0.2
2016-Dec-03 04:33N 39°55' W 075°08'0 0.0
2016-Dec-03 03:33N 39°55' W 075°08'0 0.0
2016-Dec-03 02:33N 39°55' W 075°08'0 0.0
2016-Dec-03 01:33N 39°55' W 075°08'0 0.0
2016-Dec-03 00:33N 39°55' W 075°08'1 0.9
2016-Dec-02 23:33N 39°54' W 075°08'4 3.6
2016-Dec-02 22:33N 39°54' W 075°12'0 0.0
2016-Dec-02 21:34N 39°54' W 075°12'0 0.0
2016-Dec-02 20:33N 39°54' W 075°12'4 3.8
2016-Dec-02 19:33N 39°55' W 075°08'0 0.0
2016-Dec-02 18:32N 39°55' W 075°08'0 0.0
2016-Dec-02 17:32N 39°55' W 075°08'0 0.0
2016-Dec-02 16:32N 39°55' W 075°08'0 0.2
2016-Dec-02 15:32N 39°55' W 075°08'0 0.1
2016-Dec-02 14:32N 39°55' W 075°08'0 0.0
2016-Dec-02 13:32N 39°55' W 075°08'0 0.0
2016-Dec-02 12:32N 39°55' W 075°08'0 0.0
2016-Dec-02 11:31N 39°55' W 075°08'0 0.0
2016-Dec-02 10:31N 39°55' W 075°08'0 0.0
2016-Dec-02 09:31N 39°55' W 075°08'0 0.2
2016-Dec-02 08:31N 39°55' W 075°08'0 0.0
2016-Dec-02 07:31N 39°55' W 075°08'0 0.0
2016-Dec-02 06:31N 39°55' W 075°08'0 0.0
2016-Dec-02 05:31N 39°55' W 075°08'0 0.1
2016-Dec-02 04:33N 39°55' W 075°08'0 0.1
2016-Dec-02 03:33N 39°56' W 075°08'0 0.0
2016-Dec-02 02:33N 39°56' W 075°08'0 0.0
2016-Dec-02 01:33N 39°56' W 075°08'0 0.4
2016-Dec-02 00:33N 39°55' W 075°08'4 4.5
2016-Dec-01 23:34N 39°52' W 075°12'6 6.1
2016-Dec-01 22:33N 39°51' W 075°20'5 5.5
2016-Dec-01 21:33N 39°48' W 075°26'7 6.7
2016-Dec-01 20:33N 39°42' W 075°31'7 6.8
2016-Dec-01 19:33N 39°36' W 075°34'4 4.3
2016-Dec-01 18:33N 39°33' W 075°39'6 5.8
2016-Dec-01 17:33N 39°32' W 075°46'6 6.2
2016-Dec-01 16:33N 39°31' W 075°54'8 7.9
2016-Dec-01 15:33N 39°25' W 076°01'8 8.3
2016-Dec-01 14:33N 39°21' W 076°10'8 8.3
2016-Dec-01 13:33N 39°13' W 076°15'7 7.0
2016-Dec-01 12:33N 39°10' W 076°23'8 8.1
2016-Dec-01 11:33N 39°13' W 076°32'2 2.1
2016-Dec-01 10:33N 39°15' W 076°33'0 0.0
2016-Dec-01 09:33N 39°15' W 076°33'0 0.0
2016-Dec-01 08:33N 39°15' W 076°33'0 0.0
2016-Dec-01 07:33N 39°15' W 076°33'0 0.0
2016-Dec-01 06:33N 39°15' W 076°33'0 0.2
2016-Dec-01 05:33N 39°15' W 076°33'0 0.0
2016-Dec-01 04:33N 39°15' W 076°33'0 0.2
2016-Dec-01 03:33N 39°15' W 076°33'0 0.1
2016-Dec-01 02:33N 39°15' W 076°33'0 0.1
2016-Dec-01 01:33N 39°15' W 076°33'0 0.0
2016-Dec-01 00:33N 39°15' W 076°33'0 0.2
2016-Nov-30 23:33N 39°15' W 076°33'0 0.1
2016-Nov-30 22:33N 39°15' W 076°33'0 0.0
2016-Nov-30 21:33N 39°15' W 076°33'0 0.0
2016-Nov-30 20:33N 39°15' W 076°33'0 0.1
2016-Nov-30 19:33N 39°15' W 076°33'0 0.0
2016-Nov-30 18:33N 39°15' W 076°33'0 0.0
2016-Nov-30 17:33N 39°15' W 076°33'0 0.0
2016-Nov-30 16:33N 39°15' W 076°33'0 0.1
2016-Nov-30 15:32N 39°15' W 076°33'0 0.1
2016-Nov-30 14:33N 39°15' W 076°33'0 0.0
2016-Nov-30 13:33N 39°15' W 076°33'0 0.1
2016-Nov-30 12:33N 39°15' W 076°33'0 0.1
2016-Nov-30 11:33N 39°15' W 076°33'0 0.1
2016-Nov-30 10:33N 39°15' W 076°33'0 0.0
2016-Nov-30 09:33N 39°15' W 076°33'0 0.0
2016-Nov-30 08:33N 39°15' W 076°33'0 0.1
2016-Nov-30 07:33N 39°15' W 076°33'2 1.6
2016-Nov-30 06:33N 39°16' W 076°34'1 1.2
2016-Nov-30 05:33N 39°16' W 076°33'0 0.0
2016-Nov-30 04:33N 39°16' W 076°33'0 0.0
2016-Nov-30 03:33N 39°16' W 076°33'0 0.0
2016-Nov-30 02:33N 39°16' W 076°33'0 0.0
2016-Nov-30 01:33N 39°16' W 076°33'0 0.0
2016-Nov-30 00:33N 39°16' W 076°33'0 0.0
2016-Nov-29 23:33N 39°16' W 076°33'0 0.0
2016-Nov-29 22:33N 39°16' W 076°33'0 0.0
2016-Nov-29 21:33N 39°16' W 076°33'0 0.0
2016-Nov-29 20:33N 39°16' W 076°33'0 0.0
2016-Nov-29 19:33N 39°16' W 076°33'0 0.0
2016-Nov-29 18:33N 39°16' W 076°33'0 0.0
2016-Nov-29 17:33N 39°16' W 076°33'0 0.0
2016-Nov-29 16:33N 39°16' W 076°33'0 0.0
2016-Nov-29 15:33N 39°16' W 076°33'0 0.0
2016-Nov-29 14:33N 39°16' W 076°33'1 1.1
2016-Nov-29 13:33N 39°16' W 076°34'1 1.5
2016-Nov-29 12:33N 39°15' W 076°33'0 0.0
2016-Nov-29 11:33N 39°15' W 076°33'0 0.0
2016-Nov-29 10:33N 39°15' W 076°33'0 0.0
2016-Nov-29 09:33N 39°15' W 076°33'0 0.0
2016-Nov-29 08:33N 39°15' W 076°33'0 0.0
2016-Nov-29 07:33N 39°15' W 076°33'0 0.0
2016-Nov-29 06:33N 39°15' W 076°33'0 0.0
2016-Nov-29 05:33N 39°15' W 076°33'0 0.0
2016-Nov-29 04:33N 39°15' W 076°33'0 0.0
2016-Nov-29 03:33N 39°15' W 076°33'0 0.0
2016-Nov-29 02:33N 39°15' W 076°33'0 0.0
2016-Nov-29 01:33N 39°15' W 076°33'0 0.0
2016-Nov-29 00:33N 39°15' W 076°33'0 0.0
2016-Nov-28 23:33N 39°15' W 076°33'0 0.0
2016-Nov-28 22:33N 39°15' W 076°33'0 0.0
2016-Nov-28 21:33N 39°15' W 076°33'0 0.0
2016-Nov-28 20:33N 39°15' W 076°33'0 0.0
2016-Nov-28 19:33N 39°15' W 076°33'0 0.0
2016-Nov-28 18:33N 39°15' W 076°33'0 0.0
2016-Nov-28 17:33N 39°15' W 076°33'0 0.0
2016-Nov-28 16:33N 39°15' W 076°33'0 0.0
2016-Nov-28 15:33N 39°15' W 076°33'0 0.1
2016-Nov-28 14:33N 39°15' W 076°33'0 0.0
2016-Nov-28 13:33N 39°15' W 076°33'0 0.0
2016-Nov-28 12:33N 39°15' W 076°33'0 0.0
2016-Nov-28 11:33N 39°15' W 076°33'0 0.0
2016-Nov-28 10:33N 39°15' W 076°33'0 0.0
2016-Nov-28 09:33N 39°15' W 076°33'0 0.0
2016-Nov-28 08:33N 39°15' W 076°33'0 0.0
2016-Nov-28 07:33N 39°15' W 076°33'1 1.1
2016-Nov-28 06:33N 39°14' W 076°33'6 5.8
2016-Nov-28 05:33N 39°11' W 076°26'8 8.4
2016-Nov-28 04:33N 39°12' W 076°16'1010.2
2016-Nov-28 03:33N 39°21' W 076°10'1010.0
2016-Nov-28 02:33N 39°27' W 075°59'9 8.9
2016-Nov-28 01:33N 39°32' W 075°50'8 7.8
2016-Nov-28 00:33N 39°33' W 075°40'6 5.7
2016-Nov-27 23:33N 39°37' W 075°35'1010.3
2016-Nov-27 22:33N 39°46' W 075°28'1110.5
2016-Nov-27 21:34N 39°51' W 075°16'4 4.4
2016-Nov-27 20:33N 39°55' W 075°13'1 1.1
2016-Nov-27 19:33N 39°54' W 075°12'0 0.0
2016-Nov-27 18:33N 39°54' W 075°12'0 0.0
2016-Nov-27 17:33N 39°54' W 075°12'0 0.0
2016-Nov-27 16:33N 39°54' W 075°12'0 0.0
2016-Nov-27 15:33N 39°54' W 075°12'0 0.0
2016-Nov-27 14:33N 39°54' W 075°12'0 0.0
2016-Nov-27 13:33N 39°54' W 075°12'0 0.0
2016-Nov-27 12:33N 39°54' W 075°12'0 0.0
2016-Nov-27 11:33N 39°54' W 075°12'0 0.0
2016-Nov-27 10:33N 39°54' W 075°12'0 0.0
2016-Nov-27 09:33N 39°54' W 075°12'0 0.0
2016-Nov-27 08:22N 39°54' W 075°12'0 0.0
2016-Nov-27 07:33N 39°54' W 075°12'0 0.0
2016-Nov-27 06:33N 39°54' W 075°12'0 0.0
2016-Nov-27 05:33N 39°54' W 075°12'0 0.0
2016-Nov-27 04:33N 39°54' W 075°12'1 1.1
2016-Nov-27 03:33N 39°55' W 075°13'2 2.4
2016-Nov-27 02:33N 39°52' W 075°13'0 0.1
2016-Nov-27 01:33N 39°52' W 075°12'0 0.0
2016-Nov-27 00:33N 39°52' W 075°12'0 0.2
2016-Nov-26 23:33N 39°52' W 075°13'0 0.0
2016-Nov-26 22:33N 39°52' W 075°13'0 0.0
2016-Nov-26 21:33N 39°52' W 075°13'0 0.0
2016-Nov-26 20:33N 39°52' W 075°13'1 1.2
2016-Nov-26 19:33N 39°51' W 075°14'6 6.2
2016-Nov-26 18:33N 39°50' W 075°22'7 6.7
2016-Nov-26 17:33N 39°46' W 075°29'7 7.3
2016-Nov-26 16:33N 39°39' W 075°33'6 5.7
2016-Nov-26 15:33N 39°34' W 075°34'5 5.5
2016-Nov-26 14:33N 39°33' W 075°41'6 6.2
2016-Nov-26 13:33N 39°32' W 075°49'7 7.3
2016-Nov-26 12:33N 39°28' W 075°58'  
Track history (hours):
 
Tides and Currents Weather Stations Pressure Air Temp Water Temp Dewpoint Dewpoint Depression Visibility Wind Speed Wind Dir Waves Ship Positions

Chesapeake

Owner: Vane Line Bunkering, Baltimore, MD. More information available from US FCC via Universal Licensing System and Coast Guard Vessel Documentation Center.

Last reported at 2016-Dec-06 11:33 UTC. Time now 2016-Dec-06 12:13 UTC.
Position N 39°52' W 075°13'.

Length 34 m.

Type: Tug. MMSI: 367123040.

Date/timePositionNaut miles runAvg speedWind from/ knotsBaromVisibWave heightAir tempDewpointWater temp
2016-Dec-06 11:33N 39°52' W 075°13'0 0.0
2016-Dec-06 10:33N 39°52' W 075°13'0 0.0
2016-Dec-06 09:33N 39°52' W 075°13'0 0.0
2016-Dec-06 08:33N 39°52' W 075°13'0 0.0
2016-Dec-06 07:33N 39°52' W 075°13'0 0.1
2016-Dec-06 06:33N 39°52' W 075°13'0 0.1
2016-Dec-06 05:33N 39°52' W 075°13'0 0.0
2016-Dec-06 04:33N 39°52' W 075°13'0 0.0
2016-Dec-06 03:33N 39°52' W 075°13'0 0.0
2016-Dec-06 02:33N 39°52' W 075°13'0 0.0
2016-Dec-06 01:33N 39°52' W 075°13'0 0.0
2016-Dec-06 00:33N 39°52' W 075°13'0 0.1
2016-Dec-05 23:33N 39°52' W 075°13'0 0.1
2016-Dec-05 22:33N 39°52' W 075°13'0 0.0
2016-Dec-05 21:33N 39°52' W 075°13'0 0.0
2016-Dec-05 20:33N 39°52' W 075°13'0 0.0
2016-Dec-05 19:33N 39°52' W 075°13'0 0.0
2016-Dec-05 18:33N 39°52' W 075°13'0 0.0
2016-Dec-05 17:33N 39°52' W 075°13'0 0.1
2016-Dec-05 16:33N 39°52' W 075°13'0 0.0
2016-Dec-05 15:33N 39°52' W 075°13'0 0.0
2016-Dec-05 14:33N 39°52' W 075°13'0 0.0
2016-Dec-05 13:33N 39°52' W 075°13'0 0.0
2016-Dec-05 12:33N 39°52' W 075°13'0 0.1
2016-Dec-05 11:33N 39°52' W 075°13'0 0.0
2016-Dec-05 10:33N 39°52' W 075°13'0 0.0
2016-Dec-05 09:33N 39°52' W 075°13'0 0.0
2016-Dec-05 08:33N 39°52' W 075°13'0 0.0
2016-Dec-05 07:33N 39°52' W 075°13'0 0.0
2016-Dec-05 06:33N 39°52' W 075°13'0 0.1
2016-Dec-05 05:33N 39°52' W 075°13'0 0.1
2016-Dec-05 04:33N 39°52' W 075°13'0 0.0
2016-Dec-05 03:33N 39°52' W 075°13'0 0.0
2016-Dec-05 02:33N 39°52' W 075°13'0 0.0
2016-Dec-05 01:33N 39°52' W 075°13'0 0.0
2016-Dec-05 00:33N 39°52' W 075°13'0 0.0
2016-Dec-04 23:33N 39°52' W 075°13'0 0.1
2016-Dec-04 22:33N 39°52' W 075°13'0 0.0
2016-Dec-04 21:33N 39°52' W 075°13'0 0.0
2016-Dec-04 20:33N 39°52' W 075°13'0 0.0
2016-Dec-04 19:33N 39°52' W 075°13'0 0.0
2016-Dec-04 18:33N 39°52' W 075°13'0 0.0
2016-Dec-04 17:33N 39°52' W 075°13'0 0.1
2016-Dec-04 16:34N 39°52' W 075°13'0 0.1
2016-Dec-04 15:33N 39°52' W 075°13'6 6.0
2016-Dec-04 14:33N 39°56' W 075°08'4 4.1
2016-Dec-04 13:33N 39°59' W 075°04'0 0.0
2016-Dec-04 12:33N 39°59' W 075°04'0 0.0
2016-Dec-04 11:34N 39°59' W 075°04'1 0.6
2016-Dec-04 10:33N 39°59' W 075°05'0 0.0
2016-Dec-04 09:33N 39°59' W 075°05'0 0.0
2016-Dec-04 08:33N 39°59' W 075°05'0 0.0
2016-Dec-04 07:33N 39°59' W 075°05'0 0.0
2016-Dec-04 06:33N 39°59' W 075°05'0 0.0
2016-Dec-04 05:33N 39°59' W 075°05'0 0.0
2016-Dec-04 04:33N 39°59' W 075°05'0 0.0
2016-Dec-04 03:33N 39°59' W 075°05'0 0.0
2016-Dec-04 02:33N 39°59' W 075°05'0 0.0
2016-Dec-04 01:33N 39°59' W 075°05'0 0.0
2016-Dec-04 00:33N 39°59' W 075°05'0 0.0
2016-Dec-03 23:33N 39°59' W 075°05'0 0.0
2016-Dec-03 22:33N 39°59' W 075°05'0 0.0
2016-Dec-03 21:33N 39°59' W 075°05'0 0.0
2016-Dec-03 20:33N 39°59' W 075°05'0 0.0
2016-Dec-03 19:33N 39°59' W 075°05'1 0.6
2016-Dec-03 18:33N 39°59' W 075°04'2 2.2
2016-Dec-03 17:33N 39°58' W 075°07'3 3.1
2016-Dec-03 16:33N 39°55' W 075°08'0 0.0
2016-Dec-03 15:33N 39°55' W 075°08'0 0.0
2016-Dec-03 14:33N 39°55' W 075°08'0 0.0
2016-Dec-03 13:33N 39°55' W 075°08'0 0.0
2016-Dec-03 12:33N 39°55' W 075°08'0 0.0
2016-Dec-03 11:33N 39°55' W 075°08'0 0.0
2016-Dec-03 10:33N 39°55' W 075°08'0 0.2
2016-Dec-03 09:33N 39°55' W 075°08'0 0.1
2016-Dec-03 08:33N 39°55' W 075°08'0 0.0
2016-Dec-03 07:33N 39°55' W 075°08'0 0.0
2016-Dec-03 06:33N 39°55' W 075°08'0 0.0
2016-Dec-03 05:33N 39°55' W 075°08'0 0.2
2016-Dec-03 04:33N 39°55' W 075°08'0 0.0
2016-Dec-03 03:33N 39°55' W 075°08'0 0.0
2016-Dec-03 02:33N 39°55' W 075°08'0 0.0
2016-Dec-03 01:33N 39°55' W 075°08'0 0.0
2016-Dec-03 00:33N 39°55' W 075°08'1 0.9
2016-Dec-02 23:33N 39°54' W 075°08'4 3.6
2016-Dec-02 22:33N 39°54' W 075°12'0 0.0
2016-Dec-02 21:34N 39°54' W 075°12'0 0.0
2016-Dec-02 20:33N 39°54' W 075°12'4 3.8
2016-Dec-02 19:33N 39°55' W 075°08'0 0.0
2016-Dec-02 18:32N 39°55' W 075°08'0 0.0
2016-Dec-02 17:32N 39°55' W 075°08'0 0.0
2016-Dec-02 16:32N 39°55' W 075°08'0 0.2
2016-Dec-02 15:32N 39°55' W 075°08'0 0.1
2016-Dec-02 14:32N 39°55' W 075°08'0 0.0
2016-Dec-02 13:32N 39°55' W 075°08'0 0.0
2016-Dec-02 12:32N 39°55' W 075°08'0 0.0
2016-Dec-02 11:31N 39°55' W 075°08'0 0.0
2016-Dec-02 10:31N 39°55' W 075°08'0 0.0
2016-Dec-02 09:31N 39°55' W 075°08'0 0.2
2016-Dec-02 08:31N 39°55' W 075°08'0 0.0
2016-Dec-02 07:31N 39°55' W 075°08'0 0.0
2016-Dec-02 06:31N 39°55' W 075°08'0 0.0
2016-Dec-02 05:31N 39°55' W 075°08'0 0.1
2016-Dec-02 04:33N 39°55' W 075°08'0 0.1
2016-Dec-02 03:33N 39°56' W 075°08'0 0.0
2016-Dec-02 02:33N 39°56' W 075°08'0 0.0
2016-Dec-02 01:33N 39°56' W 075°08'0 0.4
2016-Dec-02 00:33N 39°55' W 075°08'4 4.5
2016-Dec-01 23:34N 39°52' W 075°12'6 6.1
2016-Dec-01 22:33N 39°51' W 075°20'5 5.5
2016-Dec-01 21:33N 39°48' W 075°26'7 6.7
2016-Dec-01 20:33N 39°42' W 075°31'7 6.8
2016-Dec-01 19:33N 39°36' W 075°34'4 4.3
2016-Dec-01 18:33N 39°33' W 075°39'6 5.8
2016-Dec-01 17:33N 39°32' W 075°46'6 6.2
2016-Dec-01 16:33N 39°31' W 075°54'8 7.9
2016-Dec-01 15:33N 39°25' W 076°01'8 8.3
2016-Dec-01 14:33N 39°21' W 076°10'8 8.3
2016-Dec-01 13:33N 39°13' W 076°15'7 7.0
2016-Dec-01 12:33N 39°10' W 076°23'8 8.1
2016-Dec-01 11:33N 39°13' W 076°32'2 2.1
2016-Dec-01 10:33N 39°15' W 076°33'0 0.0
2016-Dec-01 09:33N 39°15' W 076°33'0 0.0
2016-Dec-01 08:33N 39°15' W 076°33'0 0.0
2016-Dec-01 07:33N 39°15' W 076°33'0 0.0
2016-Dec-01 06:33N 39°15' W 076°33'0 0.2
2016-Dec-01 05:33N 39°15' W 076°33'0 0.0
2016-Dec-01 04:33N 39°15' W 076°33'0 0.2
2016-Dec-01 03:33N 39°15' W 076°33'0 0.1
2016-Dec-01 02:33N 39°15' W 076°33'0 0.1
2016-Dec-01 01:33N 39°15' W 076°33'0 0.0
2016-Dec-01 00:33N 39°15' W 076°33'0 0.2
2016-Nov-30 23:33N 39°15' W 076°33'0 0.1
2016-Nov-30 22:33N 39°15' W 076°33'0 0.0
2016-Nov-30 21:33N 39°15' W 076°33'0 0.0
2016-Nov-30 20:33N 39°15' W 076°33'0 0.1
2016-Nov-30 19:33N 39°15' W 076°33'0 0.0
2016-Nov-30 18:33N 39°15' W 076°33'0 0.0
2016-Nov-30 17:33N 39°15' W 076°33'0 0.0
2016-Nov-30 16:33N 39°15' W 076°33'0 0.1
2016-Nov-30 15:32N 39°15' W 076°33'0 0.1
2016-Nov-30 14:33N 39°15' W 076°33'0 0.0
2016-Nov-30 13:33N 39°15' W 076°33'0 0.1
2016-Nov-30 12:33N 39°15' W 076°33'0 0.1
2016-Nov-30 11:33N 39°15' W 076°33'0 0.1
2016-Nov-30 10:33N 39°15' W 076°33'0 0.0
2016-Nov-30 09:33N 39°15' W 076°33'0 0.0
2016-Nov-30 08:33N 39°15' W 076°33'0 0.1
2016-Nov-30 07:33N 39°15' W 076°33'2 1.6
2016-Nov-30 06:33N 39°16' W 076°34'1 1.2
2016-Nov-30 05:33N 39°16' W 076°33'0 0.0
2016-Nov-30 04:33N 39°16' W 076°33'0 0.0
2016-Nov-30 03:33N 39°16' W 076°33'0 0.0
2016-Nov-30 02:33N 39°16' W 076°33'0 0.0
2016-Nov-30 01:33N 39°16' W 076°33'0 0.0
2016-Nov-30 00:33N 39°16' W 076°33'0 0.0
2016-Nov-29 23:33N 39°16' W 076°33'0 0.0
2016-Nov-29 22:33N 39°16' W 076°33'0 0.0
2016-Nov-29 21:33N 39°16' W 076°33'0 0.0
2016-Nov-29 20:33N 39°16' W 076°33'0 0.0
2016-Nov-29 19:33N 39°16' W 076°33'0 0.0
2016-Nov-29 18:33N 39°16' W 076°33'0 0.0
2016-Nov-29 17:33N 39°16' W 076°33'0 0.0
2016-Nov-29 16:33N 39°16' W 076°33'0 0.0
2016-Nov-29 15:33N 39°16' W 076°33'0 0.0
2016-Nov-29 14:33N 39°16' W 076°33'1 1.1
2016-Nov-29 13:33N 39°16' W 076°34'1 1.5
2016-Nov-29 12:33N 39°15' W 076°33'0 0.0
2016-Nov-29 11:33N 39°15' W 076°33'0 0.0
2016-Nov-29 10:33N 39°15' W 076°33'0 0.0
2016-Nov-29 09:33N 39°15' W 076°33'0 0.0
2016-Nov-29 08:33N 39°15' W 076°33'0 0.0
2016-Nov-29 07:33N 39°15' W 076°33'0 0.0
2016-Nov-29 06:33N 39°15' W 076°33'0 0.0
2016-Nov-29 05:33N 39°15' W 076°33'0 0.0
2016-Nov-29 04:33N 39°15' W 076°33'0 0.0
2016-Nov-29 03:33N 39°15' W 076°33'0 0.0
2016-Nov-29 02:33N 39°15' W 076°33'0 0.0
2016-Nov-29 01:33N 39°15' W 076°33'0 0.0
2016-Nov-29 00:33N 39°15' W 076°33'0 0.0
2016-Nov-28 23:33N 39°15' W 076°33'0 0.0
2016-Nov-28 22:33N 39°15' W 076°33'0 0.0
2016-Nov-28 21:33N 39°15' W 076°33'0 0.0
2016-Nov-28 20:33N 39°15' W 076°33'0 0.0
2016-Nov-28 19:33N 39°15' W 076°33'0 0.0
2016-Nov-28 18:33N 39°15' W 076°33'0 0.0
2016-Nov-28 17:33N 39°15' W 076°33'0 0.0
2016-Nov-28 16:33N 39°15' W 076°33'0 0.0
2016-Nov-28 15:33N 39°15' W 076°33'0 0.1
2016-Nov-28 14:33N 39°15' W 076°33'0 0.0
2016-Nov-28 13:33N 39°15' W 076°33'0 0.0
2016-Nov-28 12:33N 39°15' W 076°33'0 0.0
2016-Nov-28 11:33N 39°15' W 076°33'0 0.0
2016-Nov-28 10:33N 39°15' W 076°33'0 0.0
2016-Nov-28 09:33N 39°15' W 076°33'0 0.0
2016-Nov-28 08:33N 39°15' W 076°33'0 0.0
2016-Nov-28 07:33N 39°15' W 076°33'1 1.1
2016-Nov-28 06:33N 39°14' W 076°33'6 5.8
2016-Nov-28 05:33N 39°11' W 076°26'8 8.4
2016-Nov-28 04:33N 39°12' W 076°16'1010.2
2016-Nov-28 03:33N 39°21' W 076°10'1010.0
2016-Nov-28 02:33N 39°27' W 075°59'9 8.9
2016-Nov-28 01:33N 39°32' W 075°50'8 7.8
2016-Nov-28 00:33N 39°33' W 075°40'6 5.7
2016-Nov-27 23:33N 39°37' W 075°35'1010.3
2016-Nov-27 22:33N 39°46' W 075°28'1110.5
2016-Nov-27 21:34N 39°51' W 075°16'4 4.4
2016-Nov-27 20:33N 39°55' W 075°13'1 1.1
2016-Nov-27 19:33N 39°54' W 075°12'0 0.0
2016-Nov-27 18:33N 39°54' W 075°12'0 0.0
2016-Nov-27 17:33N 39°54' W 075°12'0 0.0
2016-Nov-27 16:33N 39°54' W 075°12'0 0.0
2016-Nov-27 15:33N 39°54' W 075°12'0 0.0
2016-Nov-27 14:33N 39°54' W 075°12'0 0.0
2016-Nov-27 13:33N 39°54' W 075°12'0 0.0
2016-Nov-27 12:33N 39°54' W 075°12'0 0.0
2016-Nov-27 11:33N 39°54' W 075°12'0 0.0
2016-Nov-27 10:33N 39°54' W 075°12'0 0.0
2016-Nov-27 09:33N 39°54' W 075°12'0 0.0
2016-Nov-27 08:22N 39°54' W 075°12'0 0.0
2016-Nov-27 07:33N 39°54' W 075°12'0 0.0
2016-Nov-27 06:33N 39°54' W 075°12'0 0.0
2016-Nov-27 05:33N 39°54' W 075°12'0 0.0
2016-Nov-27 04:33N 39°54' W 075°12'1 1.1
2016-Nov-27 03:33N 39°55' W 075°13'2 2.4
2016-Nov-27 02:33N 39°52' W 075°13'0 0.1
2016-Nov-27 01:33N 39°52' W 075°12'0 0.0
2016-Nov-27 00:33N 39°52' W 075°12'0 0.2
2016-Nov-26 23:33N 39°52' W 075°13'0 0.0
2016-Nov-26 22:33N 39°52' W 075°13'0 0.0
2016-Nov-26 21:33N 39°52' W 075°13'0 0.0
2016-Nov-26 20:33N 39°52' W 075°13'1 1.2
2016-Nov-26 19:33N 39°51' W 075°14'6 6.2
2016-Nov-26 18:33N 39°50' W 075°22'7 6.7
2016-Nov-26 17:33N 39°46' W 075°29'7 7.3
2016-Nov-26 16:33N 39°39' W 075°33'6 5.7
2016-Nov-26 15:33N 39°34' W 075°34'5 5.5
2016-Nov-26 14:33N 39°33' W 075°41'6 6.2
2016-Nov-26 13:33N 39°32' W 075°49'7 7.3
2016-Nov-26 12:33N 39°28' W 075°58'  

Dump ship's entire track history